aviador You're here:

KPWT Decoded Metar

BREMERTON NTNL in WA, USA
Report Time2017-11-19 20:56:00
UTC Time2017-11-19 21:48:12
Flight Rules vfr VFR
Wind200° at 17 Gusting to 22 kt
W.Decomp.*RWY 20: 16.0 kt HW 5.8 kt LCW
W.Rank200° ranks 3
Current wind is above 200° avg. (8.5)
Visibility9999 m
Phenomena:N/A
Clouds:Overcast 039 Hf
Expected CloudBase > 2,000 ft AGL from Temp-Dew spread
Ceiling3,900 ft
Temp07°C (ISA -7)
Dew Point02°C (71% RH)
AAT-0.8°C
QNH1008 hPa
Density Alt-95 ft
Elevation482 ft
Report Wrong Elevation
Raw Report
METAR KPWT 192056Z AUTO 20017G22KT 10SM OVC039 07/02 A2978 RMK AO2
PK WND 20028/2007 SLP103 60001 T00720017 58037=

Extra information for KPWT:More info

Metar Taf Metar & Taf Last 4 Metars F.Rules Stats Wind Profile Meteogram Temp Stats Airport Information Weather charts Add Link Nearby VenuesMetar ALERT Operation Metar Decoded Social comments

AIRNAV info for KPWT